sensor_id;sensor_type;location;lat;lon;timestamp;pressure;altitude;pressure_sealevel;temperature;humidity
21203;BME280;10759;51.982;9.232;2023-03-23T00:00:22;99275.63;;;13.92;82.62
21203;BME280;10759;51.982;9.232;2023-03-23T00:02:49;99264.44;;;13.99;83.67
21203;BME280;10759;51.982;9.232;2023-03-23T00:05:16;99265.50;;;14.09;83.50
21203;BME280;10759;51.982;9.232;2023-03-23T00:07:43;99267.22;;;14.10;83.98
21203;BME280;10759;51.982;9.232;2023-03-23T00:10:10;99257.53;;;13.94;84.84
21203;BME280;10759;51.982;9.232;2023-03-23T00:12:39;99261.69;;;13.73;86.39
21203;BME280;10759;51.982;9.232;2023-03-23T00:15:08;99231.59;;;13.41;86.79
21203;BME280;10759;51.982;9.232;2023-03-23T00:17:38;99260.09;;;13.70;85.49
21203;BME280;10759;51.982;9.232;2023-03-23T00:20:06;99262.06;;;13.94;83.61
21203;BME280;10759;51.982;9.232;2023-03-23T00:22:35;99256.91;;;13.91;84.00
21203;BME280;10759;51.982;9.232;2023-03-23T00:25:03;99257.13;;;14.01;83.44
21203;BME280;10759;51.982;9.232;2023-03-23T00:27:30;99255.59;;;13.96;83.47
21203;BME280;10759;51.982;9.232;2023-03-23T00:29:59;99247.63;;;13.82;83.96
21203;BME280;10759;51.982;9.232;2023-03-23T00:32:26;99238.78;;;13.93;85.58
21203;BME280;10759;51.982;9.232;2023-03-23T00:34:54;99236.22;;;13.79;84.52
21203;BME280;10759;51.982;9.232;2023-03-23T00:37:22;99228.34;;;13.88;83.72
21203;BME280;10759;51.982;9.232;2023-03-23T00:39:49;99232.13;;;13.99;83.87
21203;BME280;10759;51.982;9.232;2023-03-23T00:42:17;99226.75;;;13.86;86.52
21203;BME280;10759;51.982;9.232;2023-03-23T00:44:44;99214.84;;;13.63;88.76
21203;BME280;10759;51.982;9.232;2023-03-23T00:47:12;99211.09;;;13.65;89.29
21203;BME280;10759;51.982;9.232;2023-03-23T00:49:42;99198.38;;;13.42;91.27
21203;BME280;10759;51.982;9.232;2023-03-23T00:52:09;99228.59;;;13.45;89.68
21203;BME280;10759;51.982;9.232;2023-03-23T00:54:36;99220.84;;;13.53;88.57
21203;BME280;10759;51.982;9.232;2023-03-23T00:57:03;99229.50;;;13.59;88.34
21203;BME280;10759;51.982;9.232;2023-03-23T00:59:31;99219.81;;;13.69;86.15
21203;BME280;10759;51.982;9.232;2023-03-23T01:01:58;99219.69;;;13.70;86.68
21203;BME280;10759;51.982;9.232;2023-03-23T01:04:26;99204.22;;;13.74;85.26
21203;BME280;10759;51.982;9.232;2023-03-23T01:06:57;99220.06;;;13.91;85.74
21203;BME280;10759;51.982;9.232;2023-03-23T01:09:26;99218.84;;;13.83;85.77
21203;BME280;10759;51.982;9.232;2023-03-23T01:11:53;99199.25;;;13.68;85.03
21203;BME280;10759;51.982;9.232;2023-03-23T01:14:21;99205.94;;;13.88;84.16
21203;BME280;10759;51.982;9.232;2023-03-23T01:16:49;99213.59;;;13.81;85.90
21203;BME280;10759;51.982;9.232;2023-03-23T01:19:16;99185.47;;;13.47;87.49
21203;BME280;10759;51.982;9.232;2023-03-23T01:21:44;99212.28;;;13.61;88.61
21203;BME280;10759;51.982;9.232;2023-03-23T01:24:11;99205.75;;;13.38;90.49
21203;BME280;10759;51.982;9.232;2023-03-23T01:26:38;99207.53;;;13.52;90.55
21203;BME280;10759;51.982;9.232;2023-03-23T01:29:04;99168.09;;;13.38;90.95
21203;BME280;10759;51.982;9.232;2023-03-23T01:31:31;99193.94;;;13.53;91.27
21203;BME280;10759;51.982;9.232;2023-03-23T01:33:58;99189.22;;;13.44;92.92
21203;BME280;10759;51.982;9.232;2023-03-23T01:36:27;99188.78;;;13.50;93.06
21203;BME280;10759;51.982;9.232;2023-03-23T01:39:04;99174.38;;;13.51;92.38
21203;BME280;10759;51.982;9.232;2023-03-23T01:41:32;99182.09;;;13.30;94.18
21203;BME280;10759;51.982;9.232;2023-03-23T01:44:05;99156.19;;;13.15;94.73
21203;BME280;10759;51.982;9.232;2023-03-23T01:46:44;99160.84;;;13.26;95.42
21203;BME280;10759;51.982;9.232;2023-03-23T01:49:14;99173.94;;;13.45;94.18
21203;BME280;10759;51.982;9.232;2023-03-23T01:51:46;99185.53;;;13.45;94.81
21203;BME280;10759;51.982;9.232;2023-03-23T01:54:17;99172.94;;;13.33;93.87
21203;BME280;10759;51.982;9.232;2023-03-23T01:56:49;99186.41;;;13.46;93.70
21203;BME280;10759;51.982;9.232;2023-03-23T01:59:17;99189.53;;;13.52;93.09
21203;BME280;10759;51.982;9.232;2023-03-23T02:01:54;99140.56;;;13.35;92.32
21203;BME280;10759;51.982;9.232;2023-03-23T02:04:22;99193.22;;;13.51;95.16
21203;BME280;10759;51.982;9.232;2023-03-23T02:06:50;99174.91;;;13.44;95.20
21203;BME280;10759;51.982;9.232;2023-03-23T02:09:22;99188.72;;;13.25;96.47
21203;BME280;10759;51.982;9.232;2023-03-23T02:11:49;99194.09;;;13.25;96.72
21203;BME280;10759;51.982;9.232;2023-03-23T02:14:18;99193.13;;;13.26;97.41
21203;BME280;10759;51.982;9.232;2023-03-23T02:16:50;99188.03;;;13.21;97.93
21203;BME280;10759;51.982;9.232;2023-03-23T02:19:38;99103.00;;;12.53;99.52
21203;BME280;10759;51.982;9.232;2023-03-23T02:22:26;99186.03;;;13.25;98.74
21203;BME280;10759;51.982;9.232;2023-03-23T02:25:20;99180.25;;;13.31;99.66
21203;BME280;10759;51.982;9.232;2023-03-23T02:28:09;99161.13;;;13.08;100.00
21203;BME280;10759;51.982;9.232;2023-03-23T02:30:54;99164.22;;;13.29;99.12
21203;BME280;10759;51.982;9.232;2023-03-23T02:33:49;99159.53;;;13.19;100.00
21203;BME280;10759;51.982;9.232;2023-03-23T02:36:23;99152.13;;;12.82;100.00
21203;BME280;10759;51.982;9.232;2023-03-23T02:38:57;99159.72;;;13.03;100.00
21203;BME280;10759;51.982;9.232;2023-03-23T02:41:31;99169.31;;;13.07;100.00
21203;BME280;10759;51.982;9.232;2023-03-23T02:44:01;99156.19;;;13.15;100.00
21203;BME280;10759;51.982;9.232;2023-03-23T02:46:29;99150.19;;;12.84;100.00
21203;BME280;10759;51.982;9.232;2023-03-23T02:48:58;99146.06;;;13.06;100.00
21203;BME280;10759;51.982;9.232;2023-03-23T02:51:27;99143.28;;;13.20;100.00
21203;BME280;10759;51.982;9.232;2023-03-23T02:53:55;99121.09;;;13.04;100.00
21203;BME280;10759;51.982;9.232;2023-03-23T02:56:25;99134.38;;;13.20;100.00
21203;BME280;10759;51.982;9.232;2023-03-23T02:58:54;99139.00;;;13.18;100.00
21203;BME280;10759;51.982;9.232;2023-03-23T03:01:55;99137.69;;;13.10;100.00
21203;BME280;10759;51.982;9.232;2023-03-23T03:04:26;99137.28;;;12.89;100.00
21203;BME280;10759;51.982;9.232;2023-03-23T03:07:15;99145.28;;;13.04;100.00
21203;BME280;10759;51.982;9.232;2023-03-23T03:09:52;99158.28;;;13.24;100.00
21203;BME280;10759;51.982;9.232;2023-03-23T03:12:28;99157.56;;;13.35;98.56
21203;BME280;10759;51.982;9.232;2023-03-23T03:15:05;99160.06;;;13.24;98.72
21203;BME280;10759;51.982;9.232;2023-03-23T03:17:35;99150.06;;;13.13;99.48
21203;BME280;10759;51.982;9.232;2023-03-23T03:20:08;99150.38;;;13.08;100.00
21203;BME280;10759;51.982;9.232;2023-03-23T03:22:39;99158.75;;;13.17;100.00
21203;BME280;10759;51.982;9.232;2023-03-23T03:25:10;99147.94;;;12.91;100.00
21203;BME280;10759;51.982;9.232;2023-03-23T03:27:40;99160.03;;;12.98;100.00
21203;BME280;10759;51.982;9.232;2023-03-23T03:30:18;99151.41;;;12.93;100.00
21203;BME280;10759;51.982;9.232;2023-03-23T03:32:48;99108.38;;;12.93;100.00
21203;BME280;10759;51.982;9.232;2023-03-23T03:35:18;99106.69;;;12.92;100.00
21203;BME280;10759;51.982;9.232;2023-03-23T03:37:45;99103.66;;;12.97;100.00
21203;BME280;10759;51.982;9.232;2023-03-23T03:40:15;99111.69;;;12.84;100.00
21203;BME280;10759;51.982;9.232;2023-03-23T03:42:44;99110.84;;;12.96;100.00
21203;BME280;10759;51.982;9.232;2023-03-23T03:45:13;99106.59;;;12.66;100.00
21203;BME280;10759;51.982;9.232;2023-03-23T03:47:40;99106.63;;;12.79;100.00
21203;BME280;10759;51.982;9.232;2023-03-23T03:50:08;99092.53;;;12.76;100.00
21203;BME280;10759;51.982;9.232;2023-03-23T03:52:37;99069.41;;;12.73;100.00
21203;BME280;10759;51.982;9.232;2023-03-23T03:55:07;99101.25;;;12.79;100.00
21203;BME280;10759;51.982;9.232;2023-03-23T03:57:37;99090.31;;;12.82;100.00
21203;BME280;10759;51.982;9.232;2023-03-23T04:00:05;99087.88;;;12.65;100.00
21203;BME280;10759;51.982;9.232;2023-03-23T04:02:41;99100.84;;;12.85;100.00
21203;BME280;10759;51.982;9.232;2023-03-23T04:05:10;99103.41;;;12.87;99.95
21203;BME280;10759;51.982;9.232;2023-03-23T04:07:39;99100.94;;;12.84;99.26
21203;BME280;10759;51.982;9.232;2023-03-23T04:10:08;99117.22;;;12.95;98.84
21203;BME280;10759;51.982;9.232;2023-03-23T04:12:37;99112.47;;;12.99;98.07
21203;BME280;10759;51.982;9.232;2023-03-23T04:15:22;99100.41;;;12.92;98.62
21203;BME280;10759;51.982;9.232;2023-03-23T04:17:50;99086.84;;;12.80;99.49
21203;BME280;10759;51.982;9.232;2023-03-23T04:20:17;99071.81;;;12.78;100.00
21203;BME280;10759;51.982;9.232;2023-03-23T04:22:50;99082.13;;;12.84;99.56
21203;BME280;10759;51.982;9.232;2023-03-23T04:25:19;99083.19;;;12.81;99.90
21203;BME280;10759;51.982;9.232;2023-03-23T04:27:50;99073.69;;;12.63;100.00
21203;BME280;10759;51.982;9.232;2023-03-23T04:30:24;99061.22;;;12.75;99.84
21203;BME280;10759;51.982;9.232;2023-03-23T04:33:06;99050.06;;;12.68;97.77
21203;BME280;10759;51.982;9.232;2023-03-23T04:35:34;99078.66;;;12.82;97.00
21203;BME280;10759;51.982;9.232;2023-03-23T04:38:31;99064.94;;;12.99;95.95
21203;BME280;10759;51.982;9.232;2023-03-23T04:41:04;99051.59;;;12.85;96.46
21203;BME280;10759;51.982;9.232;2023-03-23T04:43:40;99020.25;;;12.58;96.76
21203;BME280;10759;51.982;9.232;2023-03-23T04:46:30;99056.00;;;12.99;95.68
21203;BME280;10759;51.982;9.232;2023-03-23T04:49:02;99038.88;;;12.74;97.05
21203;BME280;10759;51.982;9.232;2023-03-23T04:51:34;99056.53;;;12.78;96.58
21203;BME280;10759;51.982;9.232;2023-03-23T04:54:17;99055.66;;;12.78;95.50
21203;BME280;10759;51.982;9.232;2023-03-23T04:56:49;99071.38;;;12.84;95.37
21203;BME280;10759;51.982;9.232;2023-03-23T04:59:15;99069.44;;;12.86;95.03
21203;BME280;10759;51.982;9.232;2023-03-23T05:01:50;99070.72;;;12.80;95.14
21203;BME280;10759;51.982;9.232;2023-03-23T05:04:18;99078.47;;;12.85;94.92
21203;BME280;10759;51.982;9.232;2023-03-23T05:07:10;99080.72;;;12.78;95.63
21203;BME280;10759;51.982;9.232;2023-03-23T05:09:48;99072.78;;;12.89;95.04
21203;BME280;10759;51.982;9.232;2023-03-23T05:12:19;99080.19;;;12.86;95.53
21203;BME280;10759;51.982;9.232;2023-03-23T05:14:51;99080.81;;;12.77;96.24
21203;BME280;10759;51.982;9.232;2023-03-23T05:17:21;99092.09;;;12.82;96.99
21203;BME280;10759;51.982;9.232;2023-03-23T05:19:52;99085.75;;;12.70;97.92
21203;BME280;10759;51.982;9.232;2023-03-23T05:22:38;99081.44;;;12.67;98.03
21203;BME280;10759;51.982;9.232;2023-03-23T05:25:08;99094.16;;;12.78;97.97
21203;BME280;10759;51.982;9.232;2023-03-23T05:27:39;99053.09;;;12.49;98.46
21203;BME280;10759;51.982;9.232;2023-03-23T05:30:20;99094.13;;;12.65;98.39
21203;BME280;10759;51.982;9.232;2023-03-23T05:32:48;99084.38;;;12.50;98.48
21203;BME280;10759;51.982;9.232;2023-03-23T05:35:29;99064.31;;;12.56;98.66
21203;BME280;10759;51.982;9.232;2023-03-23T05:37:56;99092.38;;;12.64;98.75
21203;BME280;10759;51.982;9.232;2023-03-23T05:40:25;99062.88;;;12.50;98.53
21203;BME280;10759;51.982;9.232;2023-03-23T05:43:10;99111.19;;;12.64;99.41
21203;BME280;10759;51.982;9.232;2023-03-23T05:46:03;99097.47;;;12.82;98.56
21203;BME280;10759;51.982;9.232;2023-03-23T05:48:30;99102.63;;;12.72;98.99
21203;BME280;10759;51.982;9.232;2023-03-23T05:50:58;99093.09;;;12.81;98.20
21203;BME280;10759;51.982;9.232;2023-03-23T05:53:27;99087.38;;;12.73;97.95
21203;BME280;10759;51.982;9.232;2023-03-23T05:55:59;99086.31;;;12.75;98.76
21203;BME280;10759;51.982;9.232;2023-03-23T05:58:42;99079.75;;;12.79;98.27
21203;BME280;10759;51.982;9.232;2023-03-23T06:01:09;99072.50;;;12.67;99.55
21203;BME280;10759;51.982;9.232;2023-03-23T06:03:38;99064.75;;;12.62;98.59
21203;BME280;10759;51.982;9.232;2023-03-23T06:06:15;99069.88;;;12.80;98.40
21203;BME280;10759;51.982;9.232;2023-03-23T06:08:53;99061.03;;;12.78;97.50
21203;BME280;10759;51.982;9.232;2023-03-23T06:11:35;99066.41;;;12.78;98.29
21203;BME280;10759;51.982;9.232;2023-03-23T06:14:34;99076.75;;;12.84;97.30
21203;BME280;10759;51.982;9.232;2023-03-23T06:17:01;99077.59;;;12.84;96.91
21203;BME280;10759;51.982;9.232;2023-03-23T06:19:28;99077.84;;;12.94;96.47
21203;BME280;10759;51.982;9.232;2023-03-23T06:22:05;99045.06;;;12.62;97.03
21203;BME280;10759;51.982;9.232;2023-03-23T06:24:51;99086.72;;;12.82;96.83
21203;BME280;10759;51.982;9.232;2023-03-23T06:27:25;99081.03;;;12.86;97.07
21203;BME280;10759;51.982;9.232;2023-03-23T06:29:54;99095.25;;;12.88;96.28
21203;BME280;10759;51.982;9.232;2023-03-23T06:32:24;99083.66;;;13.01;95.59
21203;BME280;10759;51.982;9.232;2023-03-23T06:34:51;99105.19;;;13.26;94.01
21203;BME280;10759;51.982;9.232;2023-03-23T06:37:21;99101.97;;;13.21;94.74
21203;BME280;10759;51.982;9.232;2023-03-23T06:40:01;99079.72;;;13.19;93.48
21203;BME280;10759;51.982;9.232;2023-03-23T06:42:36;99110.19;;;13.32;93.43
21203;BME280;10759;51.982;9.232;2023-03-23T06:45:29;99096.72;;;13.20;93.76
21203;BME280;10759;51.982;9.232;2023-03-23T06:48:15;99096.88;;;13.44;92.82
21203;BME280;10759;51.982;9.232;2023-03-23T06:50:43;99115.53;;;13.20;92.67
21203;BME280;10759;51.982;9.232;2023-03-23T06:53:12;99112.13;;;13.43;94.33
21203;BME280;10759;51.982;9.232;2023-03-23T06:55:39;99117.19;;;13.48;92.37
21203;BME280;10759;51.982;9.232;2023-03-23T06:58:10;99117.09;;;13.37;91.73
21203;BME280;10759;51.982;9.232;2023-03-23T07:00:37;99082.63;;;13.29;91.89
21203;BME280;10759;51.982;9.232;2023-03-23T07:03:05;99103.75;;;13.35;91.26
21203;BME280;10759;51.982;9.232;2023-03-23T07:05:33;99127.66;;;13.52;90.79
21203;BME280;10759;51.982;9.232;2023-03-23T07:08:00;99118.91;;;13.36;91.49
21203;BME280;10759;51.982;9.232;2023-03-23T07:10:36;99116.88;;;13.40;93.15
21203;BME280;10759;51.982;9.232;2023-03-23T07:13:05;99136.44;;;13.29;93.22
21203;BME280;10759;51.982;9.232;2023-03-23T07:15:44;99093.97;;;13.34;93.35
21203;BME280;10759;51.982;9.232;2023-03-23T07:18:11;99128.28;;;13.43;92.98
21203;BME280;10759;51.982;9.232;2023-03-23T07:20:47;99117.97;;;13.50;91.03
21203;BME280;10759;51.982;9.232;2023-03-23T07:23:14;99065.97;;;13.49;91.02
21203;BME280;10759;51.982;9.232;2023-03-23T07:25:46;99138.53;;;13.77;90.94
21203;BME280;10759;51.982;9.232;2023-03-23T07:28:19;99101.81;;;13.50;90.89
21203;BME280;10759;51.982;9.232;2023-03-23T07:30:49;99136.38;;;13.82;91.17
21203;BME280;10759;51.982;9.232;2023-03-23T07:33:17;99126.78;;;13.65;92.45
21203;BME280;10759;51.982;9.232;2023-03-23T07:35:44;99133.91;;;13.79;90.36
21203;BME280;10759;51.982;9.232;2023-03-23T07:38:15;99134.69;;;14.17;89.82
21203;BME280;10759;51.982;9.232;2023-03-23T07:40:46;99147.50;;;14.27;90.30
21203;BME280;10759;51.982;9.232;2023-03-23T07:43:16;99150.53;;;14.09;90.02
21203;BME280;10759;51.982;9.232;2023-03-23T07:45:54;99147.78;;;14.48;87.71
21203;BME280;10759;51.982;9.232;2023-03-23T07:48:24;99146.94;;;14.34;88.58
21203;BME280;10759;51.982;9.232;2023-03-23T07:50:52;99152.19;;;14.49;87.16
21203;BME280;10759;51.982;9.232;2023-03-23T07:53:20;99159.50;;;14.47;86.61
21203;BME280;10759;51.982;9.232;2023-03-23T07:55:59;99157.69;;;14.60;86.58
21203;BME280;10759;51.982;9.232;2023-03-23T07:59:07;99168.22;;;14.63;85.92
21203;BME280;10759;51.982;9.232;2023-03-23T08:01:38;99167.03;;;14.67;85.33
21203;BME280;10759;51.982;9.232;2023-03-23T08:04:28;99165.25;;;14.55;84.28
21203;BME280;10759;51.982;9.232;2023-03-23T08:07:08;99162.78;;;14.39;88.61
21203;BME280;10759;51.982;9.232;2023-03-23T08:09:56;99164.94;;;14.34;86.43
21203;BME280;10759;51.982;9.232;2023-03-23T08:12:33;99170.47;;;14.32;88.17
21203;BME280;10759;51.982;9.232;2023-03-23T08:15:35;99177.69;;;14.69;86.67
21203;BME280;10759;51.982;9.232;2023-03-23T08:18:07;99188.63;;;14.67;86.34
21203;BME280;10759;51.982;9.232;2023-03-23T08:20:52;99186.97;;;14.52;85.51
21203;BME280;10759;51.982;9.232;2023-03-23T08:23:30;99155.00;;;14.47;85.16
21203;BME280;10759;51.982;9.232;2023-03-23T08:26:17;99173.44;;;14.41;83.84
21203;BME280;10759;51.982;9.232;2023-03-23T08:28:54;99113.69;;;14.10;84.36
21203;BME280;10759;51.982;9.232;2023-03-23T08:31:40;99171.69;;;14.52;82.30
21203;BME280;10759;51.982;9.232;2023-03-23T08:34:19;99148.63;;;14.48;85.18
21203;BME280;10759;51.982;9.232;2023-03-23T08:37:06;99166.72;;;14.72;81.94
21203;BME280;10759;51.982;9.232;2023-03-23T08:40:00;99185.56;;;14.96;81.76
21203;BME280;10759;51.982;9.232;2023-03-23T08:43:01;99166.66;;;14.85;81.97
21203;BME280;10759;51.982;9.232;2023-03-23T08:45:32;99162.19;;;14.96;81.88
21203;BME280;10759;51.982;9.232;2023-03-23T08:48:14;99160.78;;;14.91;80.99
21203;BME280;10759;51.982;9.232;2023-03-23T08:51:02;99176.72;;;14.94;78.53
21203;BME280;10759;51.982;9.232;2023-03-23T08:53:47;99170.03;;;14.99;78.97
21203;BME280;10759;51.982;9.232;2023-03-23T08:56:13;99171.97;;;14.97;79.30
21203;BME280;10759;51.982;9.232;2023-03-23T08:58:59;99159.63;;;15.06;77.48
21203;BME280;10759;51.982;9.232;2023-03-23T09:01:34;99180.06;;;15.21;76.94
21203;BME280;10759;51.982;9.232;2023-03-23T09:04:21;99152.28;;;15.08;75.82
21203;BME280;10759;51.982;9.232;2023-03-23T09:07:09;99171.47;;;15.16;76.37
21203;BME280;10759;51.982;9.232;2023-03-23T09:09:37;99168.97;;;15.13;77.37
21203;BME280;10759;51.982;9.232;2023-03-23T09:12:06;99172.16;;;15.18;77.60
21203;BME280;10759;51.982;9.232;2023-03-23T09:14:33;99176.13;;;15.25;76.73
21203;BME280;10759;51.982;9.232;2023-03-23T09:17:02;99181.94;;;15.08;75.67
21203;BME280;10759;51.982;9.232;2023-03-23T09:19:29;99190.13;;;15.31;75.75
21203;BME280;10759;51.982;9.232;2023-03-23T09:21:56;99181.34;;;15.40;76.47
21203;BME280;10759;51.982;9.232;2023-03-23T09:24:25;99188.97;;;15.46;75.55
21203;BME280;10759;51.982;9.232;2023-03-23T09:26:51;99184.22;;;15.25;74.16
21203;BME280;10759;51.982;9.232;2023-03-23T09:29:18;99193.81;;;15.30;75.54
21203;BME280;10759;51.982;9.232;2023-03-23T09:31:46;99200.94;;;15.31;75.63
21203;BME280;10759;51.982;9.232;2023-03-23T09:34:14;99197.19;;;15.44;74.03
21203;BME280;10759;51.982;9.232;2023-03-23T09:36:42;99181.75;;;15.22;76.01
21203;BME280;10759;51.982;9.232;2023-03-23T09:39:09;99191.22;;;15.28;74.20
21203;BME280;10759;51.982;9.232;2023-03-23T09:41:51;99214.28;;;15.56;71.26
21203;BME280;10759;51.982;9.232;2023-03-23T09:44:26;99224.06;;;15.46;73.74
21203;BME280;10759;51.982;9.232;2023-03-23T09:47:00;99224.19;;;15.44;73.63
21203;BME280;10759;51.982;9.232;2023-03-23T09:49:33;99226.78;;;15.57;72.92
21203;BME280;10759;51.982;9.232;2023-03-23T09:52:05;99207.75;;;15.48;72.53
21203;BME280;10759;51.982;9.232;2023-03-23T09:54:37;99215.53;;;15.63;70.83
21203;BME280;10759;51.982;9.232;2023-03-23T09:57:18;99228.53;;;15.58;71.23
21203;BME280;10759;51.982;9.232;2023-03-23T09:59:52;99246.88;;;15.77;71.02
21203;BME280;10759;51.982;9.232;2023-03-23T10:02:24;99241.47;;;15.77;72.33
21203;BME280;10759;51.982;9.232;2023-03-23T10:04:56;99242.38;;;15.78;70.15
21203;BME280;10759;51.982;9.232;2023-03-23T10:07:26;99231.16;;;15.71;72.19
21203;BME280;10759;51.982;9.232;2023-03-23T10:09:56;99241.47;;;15.77;71.96
21203;BME280;10759;51.982;9.232;2023-03-23T10:12:29;99234.69;;;15.60;69.55
21203;BME280;10759;51.982;9.232;2023-03-23T10:15:14;99245.00;;;15.66;70.36
21203;BME280;10759;51.982;9.232;2023-03-23T10:17:46;99247.59;;;15.68;69.99
21203;BME280;10759;51.982;9.232;2023-03-23T10:20:24;99239.47;;;15.68;67.60
21203;BME280;10759;51.982;9.232;2023-03-23T10:22:59;99239.19;;;15.60;69.64
21203;BME280;10759;51.982;9.232;2023-03-23T10:25:30;99242.22;;;15.44;68.98
21203;BME280;10759;51.982;9.232;2023-03-23T10:28:05;99245.16;;;15.41;68.57
21203;BME280;10759;51.982;9.232;2023-03-23T10:30:37;99253.09;;;15.66;68.52
21203;BME280;10759;51.982;9.232;2023-03-23T10:33:11;99247.47;;;15.70;69.27
21203;BME280;10759;51.982;9.232;2023-03-23T10:35:43;99247.78;;;15.65;67.59
21203;BME280;10759;51.982;9.232;2023-03-23T10:38:13;99247.78;;;15.78;67.92
21203;BME280;10759;51.982;9.232;2023-03-23T10:40:47;99229.59;;;15.80;67.55
21203;BME280;10759;51.982;9.232;2023-03-23T10:43:16;99238.72;;;16.01;67.63
21203;BME280;10759;51.982;9.232;2023-03-23T10:45:45;99233.56;;;15.98;65.95
21203;BME280;10759;51.982;9.232;2023-03-23T10:48:17;99234.63;;;15.84;67.17
21203;BME280;10759;51.982;9.232;2023-03-23T10:50:48;99221.03;;;16.08;67.34
21203;BME280;10759;51.982;9.232;2023-03-23T10:53:19;99202.63;;;16.02;66.53
21203;BME280;10759;51.982;9.232;2023-03-23T10:55:47;99226.59;;;16.29;67.21
21203;BME280;10759;51.982;9.232;2023-03-23T10:58:24;99232.34;;;16.14;64.40
21203;BME280;10759;51.982;9.232;2023-03-23T11:00:54;99228.28;;;16.19;65.13
21203;BME280;10759;51.982;9.232;2023-03-23T11:03:38;99217.38;;;16.55;63.70
21203;BME280;10759;51.982;9.232;2023-03-23T11:06:08;99226.72;;;16.62;65.90
21203;BME280;10759;51.982;9.232;2023-03-23T11:08:46;99216.47;;;16.65;66.88
21203;BME280;10759;51.982;9.232;2023-03-23T11:11:16;99218.34;;;16.76;66.06
21203;BME280;10759;51.982;9.232;2023-03-23T11:13:47;99227.56;;;16.85;64.62
21203;BME280;10759;51.982;9.232;2023-03-23T11:16:24;99227.41;;;16.75;60.60
21203;BME280;10759;51.982;9.232;2023-03-23T11:18:53;99232.59;;;17.01;60.94
21203;BME280;10759;51.982;9.232;2023-03-23T11:21:22;99225.97;;;16.93;60.48
21203;BME280;10759;51.982;9.232;2023-03-23T11:23:53;99146.59;;;16.49;60.82
21203;BME280;10759;51.982;9.232;2023-03-23T11:26:24;99215.84;;;16.73;59.80
21203;BME280;10759;51.982;9.232;2023-03-23T11:28:57;99253.50;;;16.65;61.67
21203;BME280;10759;51.982;9.232;2023-03-23T11:31:34;99232.34;;;16.36;61.46
21203;BME280;10759;51.982;9.232;2023-03-23T11:34:03;99230.38;;;16.16;61.48
21203;BME280;10759;51.982;9.232;2023-03-23T11:36:33;99242.91;;;16.17;61.75
21203;BME280;10759;51.982;9.232;2023-03-23T11:39:02;99235.28;;;16.22;61.75
21203;BME280;10759;51.982;9.232;2023-03-23T11:41:35;99253.72;;;16.05;61.20
21203;BME280;10759;51.982;9.232;2023-03-23T11:44:10;99244.72;;;15.94;62.48
21203;BME280;10759;51.982;9.232;2023-03-23T11:46:50;99258.19;;;15.82;63.39
21203;BME280;10759;51.982;9.232;2023-03-23T11:49:31;99253.53;;;15.84;62.68
21203;BME280;10759;51.982;9.232;2023-03-23T11:52:04;99249.47;;;15.79;62.11
21203;BME280;10759;51.982;9.232;2023-03-23T11:54:38;99267.22;;;16.05;62.59
21203;BME280;10759;51.982;9.232;2023-03-23T11:57:09;99254.63;;;15.82;60.30
21203;BME280;10759;51.982;9.232;2023-03-23T11:59:38;99241.13;;;15.71;58.84
21203;BME280;10759;51.982;9.232;2023-03-23T12:02:21;99252.47;;;16.09;62.38
21203;BME280;10759;51.982;9.232;2023-03-23T12:05:00;99227.09;;;15.65;58.73
21203;BME280;10759;51.982;9.232;2023-03-23T12:07:43;99253.69;;;15.83;59.64
21203;BME280;10759;51.982;9.232;2023-03-23T12:10:25;99296.91;;;15.94;60.34
21203;BME280;10759;51.982;9.232;2023-03-23T12:13:02;99306.84;;;14.97;73.48
21203;BME280;10759;51.982;9.232;2023-03-23T12:15:38;99296.19;;;14.45;81.97
21203;BME280;10759;51.982;9.232;2023-03-23T12:18:17;99311.00;;;14.13;89.12
21203;BME280;10759;51.982;9.232;2023-03-23T12:20:55;99324.88;;;14.07;92.60
21203;BME280;10759;51.982;9.232;2023-03-23T12:23:25;99338.84;;;13.87;95.19
21203;BME280;10759;51.982;9.232;2023-03-23T12:26:15;99329.22;;;13.70;95.81
21203;BME280;10759;51.982;9.232;2023-03-23T12:29:12;99326.97;;;13.37;97.15
21203;BME280;10759;51.982;9.232;2023-03-23T12:31:59;99319.31;;;13.43;97.49
21203;BME280;10759;51.982;9.232;2023-03-23T12:34:38;99315.50;;;13.60;96.24
21203;BME280;10759;51.982;9.232;2023-03-23T12:37:22;99323.59;;;13.60;93.29
21203;BME280;10759;51.982;9.232;2023-03-23T12:40:12;99328.94;;;13.47;92.33
21203;BME280;10759;51.982;9.232;2023-03-23T12:42:47;99329.41;;;13.54;91.41
21203;BME280;10759;51.982;9.232;2023-03-23T12:45:23;99327.41;;;13.43;90.63
21203;BME280;10759;51.982;9.232;2023-03-23T12:47:57;99310.19;;;13.46;91.32
21203;BME280;10759;51.982;9.232;2023-03-23T12:50:29;99303.09;;;13.45;88.56
21203;BME280;10759;51.982;9.232;2023-03-23T12:53:01;99315.69;;;13.84;89.69
21203;BME280;10759;51.982;9.232;2023-03-23T12:55:34;99325.63;;;14.09;87.37
21203;BME280;10759;51.982;9.232;2023-03-23T12:58:05;99321.84;;;14.12;86.17
21203;BME280;10759;51.982;9.232;2023-03-23T13:00:52;99317.63;;;13.95;85.52
21203;BME280;10759;51.982;9.232;2023-03-23T13:03:26;99311.97;;;14.25;84.04
21203;BME280;10759;51.982;9.232;2023-03-23T13:06:00;99312.72;;;14.14;85.24
21203;BME280;10759;51.982;9.232;2023-03-23T13:08:32;99299.09;;;13.90;85.65
21203;BME280;10759;51.982;9.232;2023-03-23T13:11:03;99309.06;;;14.28;84.44
21203;BME280;10759;51.982;9.232;2023-03-23T13:13:43;99306.59;;;14.25;85.57
21203;BME280;10759;51.982;9.232;2023-03-23T13:16:16;99299.78;;;14.20;83.31
21203;BME280;10759;51.982;9.232;2023-03-23T13:18:58;99327.38;;;14.23;82.87
21203;BME280;10759;51.982;9.232;2023-03-23T13:21:30;99340.63;;;14.13;83.24
21203;BME280;10759;51.982;9.232;2023-03-23T13:24:00;99339.16;;;13.82;85.08
21203;BME280;10759;51.982;9.232;2023-03-23T13:26:29;99304.16;;;13.82;84.94
21203;BME280;10759;51.982;9.232;2023-03-23T13:28:58;99318.31;;;13.99;86.81
21203;BME280;10759;51.982;9.232;2023-03-23T13:31:29;99334.88;;;13.92;86.92
21203;BME280;10759;51.982;9.232;2023-03-23T13:34:05;99312.00;;;13.85;87.50